sensor_id;sensor_type;location;lat;lon;timestamp;P1;P2;P0
44312;PMS5003;38833;51.142;-0.974;2023-11-19T00:02:02;1;1;
44312;PMS5003;38833;51.142;-0.974;2023-11-19T00:04:36;1;1;
44312;PMS5003;38833;51.142;-0.974;2023-11-19T00:07:09;2;2;
44312;PMS5003;38833;51.142;-0.974;2023-11-19T00:09:42;2;2;
44312;PMS5003;38833;51.142;-0.974;2023-11-19T00:12:16;2;2;
44312;PMS5003;38833;51.142;-0.974;2023-11-19T00:14:49;2;2;
44312;PMS5003;38833;51.142;-0.974;2023-11-19T00:17:22;1;1;
44312;PMS5003;38833;51.142;-0.974;2023-11-19T00:19:56;2;2;
44312;PMS5003;38833;51.142;-0.974;2023-11-19T00:22:29;0;0;
44312;PMS5003;38833;51.142;-0.974;2023-11-19T00:25:02;2;2;
44312;PMS5003;38833;51.142;-0.974;2023-11-19T00:27:36;1;1;
44312;PMS5003;38833;51.142;-0.974;2023-11-19T00:30:09;5;2;
44312;PMS5003;38833;51.142;-0.974;2023-11-19T00:32:43;1;1;
44312;PMS5003;38833;51.142;-0.974;2023-11-19T00:35:16;3;3;
44312;PMS5003;38833;51.142;-0.974;2023-11-19T00:37:49;3;3;
44312;PMS5003;38833;51.142;-0.974;2023-11-19T00:40:23;2;1;
44312;PMS5003;38833;51.142;-0.974;2023-11-19T00:42:56;2;2;
44312;PMS5003;38833;51.142;-0.974;2023-11-19T00:45:29;2;2;
44312;PMS5003;38833;51.142;-0.974;2023-11-19T00:48:02;4;3;
44312;PMS5003;38833;51.142;-0.974;2023-11-19T00:50:35;7;7;
44312;PMS5003;38833;51.142;-0.974;2023-11-19T00:53:09;4;4;
44312;PMS5003;38833;51.142;-0.974;2023-11-19T00:55:42;3;3;
44312;PMS5003;38833;51.142;-0.974;2023-11-19T00:58:15;2;2;
44312;PMS5003;38833;51.142;-0.974;2023-11-19T01:00:48;1;1;
44312;PMS5003;38833;51.142;-0.974;2023-11-19T01:03:22;1;1;
44312;PMS5003;38833;51.142;-0.974;2023-11-19T01:05:56;2;1;
44312;PMS5003;38833;51.142;-0.974;2023-11-19T01:08:29;3;2;
44312;PMS5003;38833;51.142;-0.974;2023-11-19T01:11:03;5;2;
44312;PMS5003;38833;51.142;-0.974;2023-11-19T01:13:36;4;2;
44312;PMS5003;38833;51.142;-0.974;2023-11-19T01:16:09;2;2;
44312;PMS5003;38833;51.142;-0.974;2023-11-19T01:18:42;1;1;
44312;PMS5003;38833;51.142;-0.974;2023-11-19T01:21:16;3;2;
44312;PMS5003;38833;51.142;-0.974;2023-11-19T01:23:49;3;3;
44312;PMS5003;38833;51.142;-0.974;2023-11-19T01:26:22;2;2;
44312;PMS5003;38833;51.142;-0.974;2023-11-19T01:28:55;3;3;
44312;PMS5003;38833;51.142;-0.974;2023-11-19T01:31:28;2;2;
44312;PMS5003;38833;51.142;-0.974;2023-11-19T01:34:02;7;4;
44312;PMS5003;38833;51.142;-0.974;2023-11-19T01:36:35;6;6;
44312;PMS5003;38833;51.142;-0.974;2023-11-19T01:39:08;6;6;
44312;PMS5003;38833;51.142;-0.974;2023-11-19T01:41:41;8;5;
44312;PMS5003;38833;51.142;-0.974;2023-11-19T01:44:14;8;4;
44312;PMS5003;38833;51.142;-0.974;2023-11-19T01:46:47;3;3;
44312;PMS5003;38833;51.142;-0.974;2023-11-19T01:49:21;5;4;
44312;PMS5003;38833;51.142;-0.974;2023-11-19T01:51:54;3;3;
44312;PMS5003;38833;51.142;-0.974;2023-11-19T01:54:27;4;2;
44312;PMS5003;38833;51.142;-0.974;2023-11-19T01:57:01;2;2;
44312;PMS5003;38833;51.142;-0.974;2023-11-19T01:59:35;3;2;
44312;PMS5003;38833;51.142;-0.974;2023-11-19T02:02:08;2;2;
44312;PMS5003;38833;51.142;-0.974;2023-11-19T02:04:41;1;1;
44312;PMS5003;38833;51.142;-0.974;2023-11-19T02:07:15;2;2;
44312;PMS5003;38833;51.142;-0.974;2023-11-19T02:09:48;1;1;
44312;PMS5003;38833;51.142;-0.974;2023-11-19T02:12:21;3;3;
44312;PMS5003;38833;51.142;-0.974;2023-11-19T02:14:54;3;3;
44312;PMS5003;38833;51.142;-0.974;2023-11-19T02:17:28;2;2;
44312;PMS5003;38833;51.142;-0.974;2023-11-19T02:20:02;4;3;
44312;PMS5003;38833;51.142;-0.974;2023-11-19T02:22:36;3;3;
44312;PMS5003;38833;51.142;-0.974;2023-11-19T02:25:11;3;3;
44312;PMS5003;38833;51.142;-0.974;2023-11-19T02:27:51;2;2;
44312;PMS5003;38833;51.142;-0.974;2023-11-19T02:30:27;4;1;
44312;PMS5003;38833;51.142;-0.974;2023-11-19T02:33:00;3;1;
44312;PMS5003;38833;51.142;-0.974;2023-11-19T02:35:34;2;2;
44312;PMS5003;38833;51.142;-0.974;2023-11-19T02:38:07;4;1;
44312;PMS5003;38833;51.142;-0.974;2023-11-19T02:40:40;3;2;
44312;PMS5003;38833;51.142;-0.974;2023-11-19T02:43:14;2;2;
44312;PMS5003;38833;51.142;-0.974;2023-11-19T02:45:47;3;1;
44312;PMS5003;38833;51.142;-0.974;2023-11-19T02:48:20;3;2;
44312;PMS5003;38833;51.142;-0.974;2023-11-19T02:50:54;1;1;
44312;PMS5003;38833;51.142;-0.974;2023-11-19T02:53:27;4;2;
44312;PMS5003;38833;51.142;-0.974;2023-11-19T02:56:00;4;2;
44312;PMS5003;38833;51.142;-0.974;2023-11-19T02:58:33;2;2;
44312;PMS5003;38833;51.142;-0.974;2023-11-19T03:01:07;1;1;
44312;PMS5003;38833;51.142;-0.974;2023-11-19T03:03:40;5;2;
44312;PMS5003;38833;51.142;-0.974;2023-11-19T03:06:13;2;2;
44312;PMS5003;38833;51.142;-0.974;2023-11-19T03:08:46;3;1;
44312;PMS5003;38833;51.142;-0.974;2023-11-19T03:11:19;4;3;
44312;PMS5003;38833;51.142;-0.974;2023-11-19T03:13:52;0;0;
44312;PMS5003;38833;51.142;-0.974;2023-11-19T03:16:25;1;1;
44312;PMS5003;38833;51.142;-0.974;2023-11-19T03:18:59;3;3;
44312;PMS5003;38833;51.142;-0.974;2023-11-19T03:21:32;2;2;
44312;PMS5003;38833;51.142;-0.974;2023-11-19T03:24:05;1;1;
44312;PMS5003;38833;51.142;-0.974;2023-11-19T03:26:38;2;1;
44312;PMS5003;38833;51.142;-0.974;2023-11-19T03:29:11;3;2;
44312;PMS5003;38833;51.142;-0.974;2023-11-19T03:31:45;1;1;
44312;PMS5003;38833;51.142;-0.974;2023-11-19T03:34:18;2;1;
44312;PMS5003;38833;51.142;-0.974;2023-11-19T03:36:51;1;1;
44312;PMS5003;38833;51.142;-0.974;2023-11-19T03:39:24;5;2;
44312;PMS5003;38833;51.142;-0.974;2023-11-19T03:41:57;0;0;
44312;PMS5003;38833;51.142;-0.974;2023-11-19T03:44:30;1;1;
44312;PMS5003;38833;51.142;-0.974;2023-11-19T03:47:04;2;2;
44312;PMS5003;38833;51.142;-0.974;2023-11-19T03:49:37;2;2;
44312;PMS5003;38833;51.142;-0.974;2023-11-19T03:52:10;2;2;
44312;PMS5003;38833;51.142;-0.974;2023-11-19T03:54:44;3;3;
44312;PMS5003;38833;51.142;-0.974;2023-11-19T03:57:17;4;4;
44312;PMS5003;38833;51.142;-0.974;2023-11-19T03:59:50;1;1;
44312;PMS5003;38833;51.142;-0.974;2023-11-19T04:02:23;4;1;
44312;PMS5003;38833;51.142;-0.974;2023-11-19T04:04:57;2;2;
44312;PMS5003;38833;51.142;-0.974;2023-11-19T04:07:30;5;3;
44312;PMS5003;38833;51.142;-0.974;2023-11-19T04:10:03;3;2;
44312;PMS5003;38833;51.142;-0.974;2023-11-19T04:12:37;2;1;
44312;PMS5003;38833;51.142;-0.974;2023-11-19T04:15:11;2;2;
44312;PMS5003;38833;51.142;-0.974;2023-11-19T04:17:44;2;2;
44312;PMS5003;38833;51.142;-0.974;2023-11-19T04:20:17;2;2;
44312;PMS5003;38833;51.142;-0.974;2023-11-19T04:22:50;2;1;
44312;PMS5003;38833;51.142;-0.974;2023-11-19T04:25:23;1;1;
44312;PMS5003;38833;51.142;-0.974;2023-11-19T04:27:57;1;1;
44312;PMS5003;38833;51.142;-0.974;2023-11-19T04:30:30;1;1;
44312;PMS5003;38833;51.142;-0.974;2023-11-19T04:33:03;3;2;
44312;PMS5003;38833;51.142;-0.974;2023-11-19T04:35:36;1;0;
44312;PMS5003;38833;51.142;-0.974;2023-11-19T04:38:09;2;2;
44312;PMS5003;38833;51.142;-0.974;2023-11-19T04:40:43;2;1;
44312;PMS5003;38833;51.142;-0.974;2023-11-19T04:43:16;4;3;
44312;PMS5003;38833;51.142;-0.974;2023-11-19T04:45:49;4;2;
44312;PMS5003;38833;51.142;-0.974;2023-11-19T04:48:22;1;1;
44312;PMS5003;38833;51.142;-0.974;2023-11-19T04:50:56;1;1;
44312;PMS5003;38833;51.142;-0.974;2023-11-19T04:53:29;0;0;
44312;PMS5003;38833;51.142;-0.974;2023-11-19T04:56:07;3;2;
44312;PMS5003;38833;51.142;-0.974;2023-11-19T04:58:40;4;2;
44312;PMS5003;38833;51.142;-0.974;2023-11-19T05:01:14;1;1;
44312;PMS5003;38833;51.142;-0.974;2023-11-19T05:03:47;2;2;
44312;PMS5003;38833;51.142;-0.974;2023-11-19T05:06:20;3;3;
44312;PMS5003;38833;51.142;-0.974;2023-11-19T05:08:53;1;1;
44312;PMS5003;38833;51.142;-0.974;2023-11-19T05:11:27;2;2;
44312;PMS5003;38833;51.142;-0.974;2023-11-19T05:14:02;4;2;
44312;PMS5003;38833;51.142;-0.974;2023-11-19T05:16:35;2;0;
44312;PMS5003;38833;51.142;-0.974;2023-11-19T05:19:11;2;2;
44312;PMS5003;38833;51.142;-0.974;2023-11-19T05:21:45;2;2;
44312;PMS5003;38833;51.142;-0.974;2023-11-19T05:24:18;2;1;
44312;PMS5003;38833;51.142;-0.974;2023-11-19T05:26:51;1;1;
44312;PMS5003;38833;51.142;-0.974;2023-11-19T05:29:25;3;3;
44312;PMS5003;38833;51.142;-0.974;2023-11-19T05:31:58;1;1;
44312;PMS5003;38833;51.142;-0.974;2023-11-19T05:34:31;3;2;
44312;PMS5003;38833;51.142;-0.974;2023-11-19T05:37:04;2;2;
44312;PMS5003;38833;51.142;-0.974;2023-11-19T05:39:37;1;1;
44312;PMS5003;38833;51.142;-0.974;2023-11-19T05:42:10;2;2;
44312;PMS5003;38833;51.142;-0.974;2023-11-19T05:44:43;7;2;
44312;PMS5003;38833;51.142;-0.974;2023-11-19T05:47:17;2;2;
44312;PMS5003;38833;51.142;-0.974;2023-11-19T05:49:50;3;2;
44312;PMS5003;38833;51.142;-0.974;2023-11-19T05:52:23;4;3;
44312;PMS5003;38833;51.142;-0.974;2023-11-19T05:54:56;2;2;
44312;PMS5003;38833;51.142;-0.974;2023-11-19T05:57:29;3;2;
44312;PMS5003;38833;51.142;-0.974;2023-11-19T06:00:03;2;2;
44312;PMS5003;38833;51.142;-0.974;2023-11-19T06:02:37;4;3;
44312;PMS5003;38833;51.142;-0.974;2023-11-19T06:05:10;7;2;
44312;PMS5003;38833;51.142;-0.974;2023-11-19T06:07:44;4;2;
44312;PMS5003;38833;51.142;-0.974;2023-11-19T06:10:17;2;2;
44312;PMS5003;38833;51.142;-0.974;2023-11-19T06:12:50;8;4;
44312;PMS5003;38833;51.142;-0.974;2023-11-19T06:15:23;2;2;
44312;PMS5003;38833;51.142;-0.974;2023-11-19T06:17:56;3;1;
44312;PMS5003;38833;51.142;-0.974;2023-11-19T06:20:29;3;2;
44312;PMS5003;38833;51.142;-0.974;2023-11-19T06:23:03;4;3;
44312;PMS5003;38833;51.142;-0.974;2023-11-19T06:25:36;2;2;
44312;PMS5003;38833;51.142;-0.974;2023-11-19T06:28:09;6;5;
44312;PMS5003;38833;51.142;-0.974;2023-11-19T06:30:42;4;4;
44312;PMS5003;38833;51.142;-0.974;2023-11-19T06:33:15;6;4;
44312;PMS5003;38833;51.142;-0.974;2023-11-19T06:35:48;5;4;
44312;PMS5003;38833;51.142;-0.974;2023-11-19T06:38:22;4;3;
44312;PMS5003;38833;51.142;-0.974;2023-11-19T06:40:55;3;3;
44312;PMS5003;38833;51.142;-0.974;2023-11-19T06:43:28;3;3;
44312;PMS5003;38833;51.142;-0.974;2023-11-19T06:46:01;4;3;
44312;PMS5003;38833;51.142;-0.974;2023-11-19T06:48:34;4;3;
44312;PMS5003;38833;51.142;-0.974;2023-11-19T06:51:08;3;3;
44312;PMS5003;38833;51.142;-0.974;2023-11-19T06:53:42;3;3;
44312;PMS5003;38833;51.142;-0.974;2023-11-19T06:56:19;6;5;
44312;PMS5003;38833;51.142;-0.974;2023-11-19T06:58:53;3;3;
44312;PMS5003;38833;51.142;-0.974;2023-11-19T07:01:26;3;3;
44312;PMS5003;38833;51.142;-0.974;2023-11-19T07:03:59;3;3;
44312;PMS5003;38833;51.142;-0.974;2023-11-19T07:06:33;3;2;
44312;PMS5003;38833;51.142;-0.974;2023-11-19T07:09:06;4;4;
44312;PMS5003;38833;51.142;-0.974;2023-11-19T07:11:39;3;3;
44312;PMS5003;38833;51.142;-0.974;2023-11-19T07:14:13;3;3;
44312;PMS5003;38833;51.142;-0.974;2023-11-19T07:16:46;3;3;
44312;PMS5003;38833;51.142;-0.974;2023-11-19T07:19:19;4;2;
44312;PMS5003;38833;51.142;-0.974;2023-11-19T07:21:52;4;4;
44312;PMS5003;38833;51.142;-0.974;2023-11-19T07:24:26;2;1;
44312;PMS5003;38833;51.142;-0.974;2023-11-19T07:26:59;3;3;
44312;PMS5003;38833;51.142;-0.974;2023-11-19T07:29:32;4;4;
44312;PMS5003;38833;51.142;-0.974;2023-11-19T07:32:05;6;4;
44312;PMS5003;38833;51.142;-0.974;2023-11-19T07:34:38;5;5;
44312;PMS5003;38833;51.142;-0.974;2023-11-19T07:37:12;8;5;
44312;PMS5003;38833;51.142;-0.974;2023-11-19T07:39:45;6;6;
44312;PMS5003;38833;51.142;-0.974;2023-11-19T07:42:18;5;4;
44312;PMS5003;38833;51.142;-0.974;2023-11-19T07:44:51;9;6;
44312;PMS5003;38833;51.142;-0.974;2023-11-19T07:47:25;6;6;
44312;PMS5003;38833;51.142;-0.974;2023-11-19T07:49:58;7;4;
44312;PMS5003;38833;51.142;-0.974;2023-11-19T07:52:31;5;5;
44312;PMS5003;38833;51.142;-0.974;2023-11-19T07:55:04;5;4;
44312;PMS5003;38833;51.142;-0.974;2023-11-19T07:57:38;5;5;
44312;PMS5003;38833;51.142;-0.974;2023-11-19T08:00:12;6;4;
44312;PMS5003;38833;51.142;-0.974;2023-11-19T08:02:45;7;5;
44312;PMS5003;38833;51.142;-0.974;2023-11-19T08:05:19;5;5;
44312;PMS5003;38833;51.142;-0.974;2023-11-19T08:07:52;4;4;
44312;PMS5003;38833;51.142;-0.974;2023-11-19T08:10:25;5;4;
44312;PMS5003;38833;51.142;-0.974;2023-11-19T08:12:59;5;5;
44312;PMS5003;38833;51.142;-0.974;2023-11-19T08:15:32;6;4;
44312;PMS5003;38833;51.142;-0.974;2023-11-19T08:18:05;6;6;
44312;PMS5003;38833;51.142;-0.974;2023-11-19T08:20:38;6;5;
44312;PMS5003;38833;51.142;-0.974;2023-11-19T08:23:11;6;4;
44312;PMS5003;38833;51.142;-0.974;2023-11-19T08:25:44;4;4;
44312;PMS5003;38833;51.142;-0.974;2023-11-19T08:28:18;7;4;
44312;PMS5003;38833;51.142;-0.974;2023-11-19T08:30:51;5;4;
44312;PMS5003;38833;51.142;-0.974;2023-11-19T08:33:24;4;4;
44312;PMS5003;38833;51.142;-0.974;2023-11-19T08:35:58;5;5;
44312;PMS5003;38833;51.142;-0.974;2023-11-19T08:38:32;7;5;
44312;PMS5003;38833;51.142;-0.974;2023-11-19T08:41:05;8;5;
44312;PMS5003;38833;51.142;-0.974;2023-11-19T08:43:38;7;3;
44312;PMS5003;38833;51.142;-0.974;2023-11-19T08:46:11;5;5;
44312;PMS5003;38833;51.142;-0.974;2023-11-19T08:48:45;9;5;
44312;PMS5003;38833;51.142;-0.974;2023-11-19T08:51:18;7;4;
44312;PMS5003;38833;51.142;-0.974;2023-11-19T08:53:51;7;6;
44312;PMS5003;38833;51.142;-0.974;2023-11-19T08:56:24;9;6;
44312;PMS5003;38833;51.142;-0.974;2023-11-19T08:58:57;4;4;
44312;PMS5003;38833;51.142;-0.974;2023-11-19T09:01:31;6;5;
44312;PMS5003;38833;51.142;-0.974;2023-11-19T09:04:04;8;4;
44312;PMS5003;38833;51.142;-0.974;2023-11-19T09:06:37;5;4;
44312;PMS5003;38833;51.142;-0.974;2023-11-19T09:09:10;5;5;
44312;PMS5003;38833;51.142;-0.974;2023-11-19T09:11:44;6;4;
44312;PMS5003;38833;51.142;-0.974;2023-11-19T09:14:17;4;3;
44312;PMS5003;38833;51.142;-0.974;2023-11-19T09:16:50;5;5;
44312;PMS5003;38833;51.142;-0.974;2023-11-19T09:19:23;5;5;
44312;PMS5003;38833;51.142;-0.974;2023-11-19T09:21:57;5;4;
44312;PMS5003;38833;51.142;-0.974;2023-11-19T09:24:30;7;4;
44312;PMS5003;38833;51.142;-0.974;2023-11-19T09:27:03;5;4;
44312;PMS5003;38833;51.142;-0.974;2023-11-19T09:29:37;5;3;
44312;PMS5003;38833;51.142;-0.974;2023-11-19T09:32:10;3;3;
44312;PMS5003;38833;51.142;-0.974;2023-11-19T09:34:43;6;5;
44312;PMS5003;38833;51.142;-0.974;2023-11-19T09:37:17;6;5;
44312;PMS5003;38833;51.142;-0.974;2023-11-19T09:39:50;6;5;
44312;PMS5003;38833;51.142;-0.974;2023-11-19T09:42:23;7;4;
44312;PMS5003;38833;51.142;-0.974;2023-11-19T09:44:57;5;4;
44312;PMS5003;38833;51.142;-0.974;2023-11-19T09:47:31;4;4;
44312;PMS5003;38833;51.142;-0.974;2023-11-19T09:50:05;5;3;
44312;PMS5003;38833;51.142;-0.974;2023-11-19T09:52:38;4;4;
44312;PMS5003;38833;51.142;-0.974;2023-11-19T09:55:12;7;4;
44312;PMS5003;38833;51.142;-0.974;2023-11-19T09:57:46;2;2;
44312;PMS5003;38833;51.142;-0.974;2023-11-19T10:00:22;6;4;
44312;PMS5003;38833;51.142;-0.974;2023-11-19T10:02:55;3;3;
44312;PMS5003;38833;51.142;-0.974;2023-11-19T10:05:29;2;2;
44312;PMS5003;38833;51.142;-0.974;2023-11-19T10:10:51;3;3;
44312;PMS5003;38833;51.142;-0.974;2023-11-19T10:13:26;2;2;
44312;PMS5003;38833;51.142;-0.974;2023-11-19T10:15:59;5;3;
44312;PMS5003;38833;51.142;-0.974;2023-11-19T10:18:43;6;3;
44312;PMS5003;38833;51.142;-0.974;2023-11-19T10:21:18;5;4;
44312;PMS5003;38833;51.142;-0.974;2023-11-19T10:23:52;3;3;
44312;PMS5003;38833;51.142;-0.974;2023-11-19T10:26:27;5;4;
44312;PMS5003;38833;51.142;-0.974;2023-11-19T10:29:00;2;2;
44312;PMS5003;38833;51.142;-0.974;2023-11-19T10:31:33;3;3;
44312;PMS5003;38833;51.142;-0.974;2023-11-19T10:34:12;3;3;
44312;PMS5003;38833;51.142;-0.974;2023-11-19T10:36:57;4;2;
44312;PMS5003;38833;51.142;-0.974;2023-11-19T10:39:33;3;1;
44312;PMS5003;38833;51.142;-0.974;2023-11-19T10:42:24;5;5;
44312;PMS5003;38833;51.142;-0.974;2023-11-19T10:44:57;3;2;
44312;PMS5003;38833;51.142;-0.974;2023-11-19T10:47:30;4;4;
44312;PMS5003;38833;51.142;-0.974;2023-11-19T10:50:07;4;3;
44312;PMS5003;38833;51.142;-0.974;2023-11-19T10:52:40;2;2;
44312;PMS5003;38833;51.142;-0.974;2023-11-19T10:55:14;2;2;
44312;PMS5003;38833;51.142;-0.974;2023-11-19T10:57:51;2;2;
44312;PMS5003;38833;51.142;-0.974;2023-11-19T11:00:29;2;2;
44312;PMS5003;38833;51.142;-0.974;2023-11-19T11:03:10;3;3;
44312;PMS5003;38833;51.142;-0.974;2023-11-19T11:05:48;2;2;
44312;PMS5003;38833;51.142;-0.974;2023-11-19T11:08:22;2;2;
44312;PMS5003;38833;51.142;-0.974;2023-11-19T11:10:55;4;3;
44312;PMS5003;38833;51.142;-0.974;2023-11-19T11:13:29;3;3;
44312;PMS5003;38833;51.142;-0.974;2023-11-19T11:16:04;4;2;
44312;PMS5003;38833;51.142;-0.974;2023-11-19T11:18:37;3;1;
44312;PMS5003;38833;51.142;-0.974;2023-11-19T11:21:12;3;3;
44312;PMS5003;38833;51.142;-0.974;2023-11-19T11:24:00;3;3;
44312;PMS5003;38833;51.142;-0.974;2023-11-19T11:27:01;2;2;
44312;PMS5003;38833;51.142;-0.974;2023-11-19T11:29:51;2;2;
44312;PMS5003;38833;51.142;-0.974;2023-11-19T11:32:35;3;3;
44312;PMS5003;38833;51.142;-0.974;2023-11-19T11:35:22;4;4;
44312;PMS5003;38833;51.142;-0.974;2023-11-19T11:38:06;3;3;
44312;PMS5003;38833;51.142;-0.974;2023-11-19T11:40:40;2;2;
44312;PMS5003;38833;51.142;-0.974;2023-11-19T11:43:43;4;2;
44312;PMS5003;38833;51.142;-0.974;2023-11-19T11:47:21;4;3;
44312;PMS5003;38833;51.142;-0.974;2023-11-19T11:49:54;4;4;
44312;PMS5003;38833;51.142;-0.974;2023-11-19T11:52:28;3;3;
44312;PMS5003;38833;51.142;-0.974;2023-11-19T11:55:04;3;3;
44312;PMS5003;38833;51.142;-0.974;2023-11-19T11:57:37;5;5;
44312;PMS5003;38833;51.142;-0.974;2023-11-19T12:00:11;5;5;
44312;PMS5003;38833;51.142;-0.974;2023-11-19T12:02:55;5;4;
44312;PMS5003;38833;51.142;-0.974;2023-11-19T12:05:29;5;5;
44312;PMS5003;38833;51.142;-0.974;2023-11-19T12:08:04;6;6;
44312;PMS5003;38833;51.142;-0.974;2023-11-19T12:10:43;4;4;
44312;PMS5003;38833;51.142;-0.974;2023-11-19T12:13:19;4;4;
44312;PMS5003;38833;51.142;-0.974;2023-11-19T12:16:08;7;5;
44312;PMS5003;38833;51.142;-0.974;2023-11-19T12:18:42;7;6;
44312;PMS5003;38833;51.142;-0.974;2023-11-19T12:21:32;6;6;
44312;PMS5003;38833;51.142;-0.974;2023-11-19T12:24:05;5;4;
44312;PMS5003;38833;51.142;-0.974;2023-11-19T12:26:40;3;3;
44312;PMS5003;38833;51.142;-0.974;2023-11-19T12:29:13;3;3;
44312;PMS5003;38833;51.142;-0.974;2023-11-19T12:31:53;4;3;
44312;PMS5003;38833;51.142;-0.974;2023-11-19T12:34:26;3;3;
44312;PMS5003;38833;51.142;-0.974;2023-11-19T12:37:02;4;3;
44312;PMS5003;38833;51.142;-0.974;2023-11-19T12:39:36;2;2;
44312;PMS5003;38833;51.142;-0.974;2023-11-19T12:42:09;3;3;
44312;PMS5003;38833;51.142;-0.974;2023-11-19T12:44:53;4;2;
44312;PMS5003;38833;51.142;-0.974;2023-11-19T12:47:27;1;1;
44312;PMS5003;38833;51.142;-0.974;2023-11-19T12:50:00;2;2;
44312;PMS5003;38833;51.142;-0.974;2023-11-19T12:52:33;1;1;
44312;PMS5003;38833;51.142;-0.974;2023-11-19T12:55:24;3;3;
44312;PMS5003;38833;51.142;-0.974;2023-11-19T12:57:58;5;4;
44312;PMS5003;38833;51.142;-0.974;2023-11-19T13:00:32;6;6;
44312;PMS5003;38833;51.142;-0.974;2023-11-19T13:03:05;7;6;
44312;PMS5003;38833;51.142;-0.974;2023-11-19T13:05:38;9;9;
44312;PMS5003;38833;51.142;-0.974;2023-11-19T13:08:39;18;15;
44312;PMS5003;38833;51.142;-0.974;2023-11-19T13:11:13;27;27;
44312;PMS5003;38833;51.142;-0.974;2023-11-19T13:13:54;38;38;
44312;PMS5003;38833;51.142;-0.974;2023-11-19T13:16:28;34;34;
44312;PMS5003;38833;51.142;-0.974;2023-11-19T13:19:01;19;18;
44312;PMS5003;38833;51.142;-0.974;2023-11-19T13:21:34;14;14;
44312;PMS5003;38833;51.142;-0.974;2023-11-19T13:24:08;9;9;
44312;PMS5003;38833;51.142;-0.974;2023-11-19T13:26:41;6;5;
44312;PMS5003;38833;51.142;-0.974;2023-11-19T13:29:14;6;6;
44312;PMS5003;38833;51.142;-0.974;2023-11-19T13:31:47;3;3;
44312;PMS5003;38833;51.142;-0.974;2023-11-19T13:34:20;4;4;
44312;PMS5003;38833;51.142;-0.974;2023-11-19T13:36:54;4;4;
44312;PMS5003;38833;51.142;-0.974;2023-11-19T13:39:27;1;1;
44312;PMS5003;38833;51.142;-0.974;2023-11-19T13:42:00;2;2;
44312;PMS5003;38833;51.142;-0.974;2023-11-19T13:44:33;2;2;
44312;PMS5003;38833;51.142;-0.974;2023-11-19T13:47:06;2;2;
44312;PMS5003;38833;51.142;-0.974;2023-11-19T13:49:41;2;2;
44312;PMS5003;38833;51.142;-0.974;2023-11-19T13:52:14;2;2;
44312;PMS5003;38833;51.142;-0.974;2023-11-19T13:54:48;2;2;
44312;PMS5003;38833;51.142;-0.974;2023-11-19T13:57:21;3;3;
44312;PMS5003;38833;51.142;-0.974;2023-11-19T13:59:54;2;2;
44312;PMS5003;38833;51.142;-0.974;2023-11-19T14:02:27;2;2;
44312;PMS5003;38833;51.142;-0.974;2023-11-19T14:05:00;2;2;
44312;PMS5003;38833;51.142;-0.974;2023-11-19T14:07:33;1;1;
44312;PMS5003;38833;51.142;-0.974;2023-11-19T14:10:07;2;2;
44312;PMS5003;38833;51.142;-0.974;2023-11-19T14:12:40;1;1;
44312;PMS5003;38833;51.142;-0.974;2023-11-19T14:15:14;1;1;
44312;PMS5003;38833;51.142;-0.974;2023-11-19T14:17:47;2;2;
44312;PMS5003;38833;51.142;-0.974;2023-11-19T14:20:20;1;1;
44312;PMS5003;38833;51.142;-0.974;2023-11-19T14:22:53;1;1;
44312;PMS5003;38833;51.142;-0.974;2023-11-19T14:25:26;1;1;
44312;PMS5003;38833;51.142;-0.974;2023-11-19T14:28:00;1;1;
44312;PMS5003;38833;51.142;-0.974;2023-11-19T14:30:33;2;2;
44312;PMS5003;38833;51.142;-0.974;2023-11-19T14:33:07;1;1;
44312;PMS5003;38833;51.142;-0.974;2023-11-19T14:35:40;1;1;
44312;PMS5003;38833;51.142;-0.974;2023-11-19T14:38:13;2;2;
44312;PMS5003;38833;51.142;-0.974;2023-11-19T14:40:46;2;2;
44312;PMS5003;38833;51.142;-0.974;2023-11-19T14:43:19;3;1;
44312;PMS5003;38833;51.142;-0.974;2023-11-19T14:45:53;1;1;
44312;PMS5003;38833;51.142;-0.974;2023-11-19T14:48:26;4;2;
44312;PMS5003;38833;51.142;-0.974;2023-11-19T14:50:59;3;3;
44312;PMS5003;38833;51.142;-0.974;2023-11-19T14:53:32;1;1;
44312;PMS5003;38833;51.142;-0.974;2023-11-19T14:56:09;1;1;
44312;PMS5003;38833;51.142;-0.974;2023-11-19T14:58:43;1;1;
44312;PMS5003;38833;51.142;-0.974;2023-11-19T15:01:16;2;2;
44312;PMS5003;38833;51.142;-0.974;2023-11-19T15:03:49;2;1;
44312;PMS5003;38833;51.142;-0.974;2023-11-19T15:06:23;0;0;
44312;PMS5003;38833;51.142;-0.974;2023-11-19T15:08:56;1;1;
44312;PMS5003;38833;51.142;-0.974;2023-11-19T15:11:29;0;0;
44312;PMS5003;38833;51.142;-0.974;2023-11-19T15:14:03;1;1;
44312;PMS5003;38833;51.142;-0.974;2023-11-19T15:16:36;2;2;
44312;PMS5003;38833;51.142;-0.974;2023-11-19T15:19:09;1;1;
44312;PMS5003;38833;51.142;-0.974;2023-11-19T15:21:42;0;0;
44312;PMS5003;38833;51.142;-0.974;2023-11-19T15:24:16;1;1;
44312;PMS5003;38833;51.142;-0.974;2023-11-19T15:26:49;0;0;
44312;PMS5003;38833;51.142;-0.974;2023-11-19T15:29:22;0;0;
44312;PMS5003;38833;51.142;-0.974;2023-11-19T15:31:55;1;1;
44312;PMS5003;38833;51.142;-0.974;2023-11-19T15:34:28;2;2;
44312;PMS5003;38833;51.142;-0.974;2023-11-19T15:37:02;1;1;
44312;PMS5003;38833;51.142;-0.974;2023-11-19T15:39:35;2;2;
44312;PMS5003;38833;51.142;-0.974;2023-11-19T15:42:08;2;2;
44312;PMS5003;38833;51.142;-0.974;2023-11-19T15:44:41;2;2;
44312;PMS5003;38833;51.142;-0.974;2023-11-19T15:47:15;1;1;
44312;PMS5003;38833;51.142;-0.974;2023-11-19T15:49:49;2;1;
44312;PMS5003;38833;51.142;-0.974;2023-11-19T15:52:22;1;1;
44312;PMS5003;38833;51.142;-0.974;2023-11-19T15:54:55;2;2;
44312;PMS5003;38833;51.142;-0.974;2023-11-19T15:57:28;2;2;
44312;PMS5003;38833;51.142;-0.974;2023-11-19T16:00:02;4;4;
44312;PMS5003;38833;51.142;-0.974;2023-11-19T16:02:35;3;2;
44312;PMS5003;38833;51.142;-0.974;2023-11-19T16:05:08;2;2;
44312;PMS5003;38833;51.142;-0.974;2023-11-19T16:07:42;2;2;
44312;PMS5003;38833;51.142;-0.974;2023-11-19T16:10:15;1;1;
44312;PMS5003;38833;51.142;-0.974;2023-11-19T16:12:48;0;0;
44312;PMS5003;38833;51.142;-0.974;2023-11-19T16:15:21;2;2;
44312;PMS5003;38833;51.142;-0.974;2023-11-19T16:17:55;1;1;
44312;PMS5003;38833;51.142;-0.974;2023-11-19T16:20:28;2;2;
44312;PMS5003;38833;51.142;-0.974;2023-11-19T16:23:01;2;2;
44312;PMS5003;38833;51.142;-0.974;2023-11-19T16:25:34;2;2;
44312;PMS5003;38833;51.142;-0.974;2023-11-19T16:37:04;1;1;
44312;PMS5003;38833;51.142;-0.974;2023-11-19T16:39:37;2;2;
44312;PMS5003;38833;51.142;-0.974;2023-11-19T16:42:10;2;2;
44312;PMS5003;38833;51.142;-0.974;2023-11-19T16:44:43;1;1;
44312;PMS5003;38833;51.142;-0.974;2023-11-19T16:47:17;1;1;
44312;PMS5003;38833;51.142;-0.974;2023-11-19T16:49:50;1;1;
44312;PMS5003;38833;51.142;-0.974;2023-11-19T16:52:23;0;0;
44312;PMS5003;38833;51.142;-0.974;2023-11-19T16:54:56;1;1;
44312;PMS5003;38833;51.142;-0.974;2023-11-19T16:57:30;1;0;
44312;PMS5003;38833;51.142;-0.974;2023-11-19T17:00:04;2;1;
44312;PMS5003;38833;51.142;-0.974;2023-11-19T17:02:38;0;0;
44312;PMS5003;38833;51.142;-0.974;2023-11-19T17:05:11;1;1;
44312;PMS5003;38833;51.142;-0.974;2023-11-19T17:07:45;2;2;
44312;PMS5003;38833;51.142;-0.974;2023-11-19T17:10:18;1;1;
44312;PMS5003;38833;51.142;-0.974;2023-11-19T17:12:52;1;1;
44312;PMS5003;38833;51.142;-0.974;2023-11-19T17:15:25;2;2;
44312;PMS5003;38833;51.142;-0.974;2023-11-19T17:17:58;3;2;
44312;PMS5003;38833;51.142;-0.974;2023-11-19T17:20:31;0;0;
44312;PMS5003;38833;51.142;-0.974;2023-11-19T17:23:04;1;1;
44312;PMS5003;38833;51.142;-0.974;2023-11-19T17:25:37;1;1;
44312;PMS5003;38833;51.142;-0.974;2023-11-19T17:28:11;0;0;
44312;PMS5003;38833;51.142;-0.974;2023-11-19T17:30:45;0;0;
44312;PMS5003;38833;51.142;-0.974;2023-11-19T17:33:18;2;2;